Time;durP1;ratioP1;P1;durP2;ratioP2;P2;SDS_P1;SDS_P2;PMS_P1;PMS_P2;Temp;Humidity;BMP_temperature;BMP_pressure;BME280_temperature;BME280_humidity;BME280_pressure;Samples;Min_cycle;Max_cycle;Signal;HPM_P1;HPM_P2
2024/01/12 00:02:25;;;;;;;13.82;9.02;;;;;;;5.81;81.96;101385.81;5005252;28;20057;-90
2024/01/12 00:04:56;;;;;;;15.57;9.00;;;;;;;5.76;81.81;101373.25;4989007;28;20088;-90
2024/01/12 00:07:29;;;;;;;13.75;9.07;;;;;;;5.77;82.02;101377.69;4995289;28;20030;-88
2024/01/12 00:09:55;;;;;;;11.85;8.73;;;;;;;5.90;81.90;101399.56;5009870;28;20029;-90
2024/01/12 00:12:34;;;;;;;14.45;8.88;;;;;;;5.82;81.90;101386.72;4994291;28;20033;-90
2024/01/12 00:15:17;;;;;;;14.85;9.35;;;;;;;5.82;81.69;101392.84;5009937;28;20056;-89
2024/01/12 00:17:42;;;;;;;13.82;8.55;;;;;;;5.82;81.95;101398.03;5010126;28;20030;-86
2024/01/12 00:20:09;;;;;;;13.85;9.00;;;;;;;5.67;81.42;101371.75;4992529;28;20048;-87
2024/01/12 00:22:34;;;;;;;;;;;;;;;5.95;81.61;101406.81;5023269;28;21443;-86
2024/01/12 00:25:00;;;;;;;14.82;8.98;;;;;;;5.89;81.47;101399.44;4977782;28;19918;-86
2024/01/12 00:27:25;;;;;;;14.23;8.90;;;;;;;5.88;81.60;101406.31;5005046;28;20029;-87
2024/01/12 00:29:51;;;;;;;14.52;9.13;;;;;;;5.90;81.48;101402.16;5020352;28;20033;-86
2024/01/12 00:32:18;;;;;;;14.15;9.07;;;;;;;5.66;81.69;101362.16;4998864;28;20577;-87
2024/01/12 00:34:43;;;;;;;13.18;8.48;;;;;;;5.75;81.43;101379.25;5006404;28;20038;-88
2024/01/12 00:37:09;;;;;;;14.73;9.07;;;;;;;5.68;81.56;101370.06;4997239;28;20097;-87
2024/01/12 00:39:36;;;;;;;13.50;9.00;;;;;;;5.70;81.52;101373.69;5004626;28;20072;-86
2024/01/12 00:42:03;;;;;;;14.70;9.23;;;;;;;5.78;81.63;101398.56;4987329;28;20499;-86
2024/01/12 00:44:29;;;;;;;14.75;9.35;;;;;;;5.57;81.43;101350.13;5005392;28;20034;-87
2024/01/12 00:46:55;;;;;;;15.10;8.75;;;;;;;5.36;81.32;101318.16;4990684;28;20035;-87
2024/01/12 00:49:21;;;;;;;15.27;9.07;;;;;;;5.38;81.73;101329.56;5008076;28;20125;-87
2024/01/12 00:51:47;;;;;;;16.33;9.60;;;;;;;5.45;81.36;101345.72;5008233;28;20077;-90
2024/01/12 00:54:13;;;;;;;13.52;8.48;;;;;;;5.82;81.32;101410.97;5001658;28;20037;-88
2024/01/12 00:56:41;;;;;;;13.65;8.80;;;;;;;5.68;81.29;101399.44;5024787;28;20092;-89
2024/01/12 00:59:07;;;;;;;14.57;8.65;;;;;;;5.08;81.28;101280.50;5023570;28;20038;-87
2024/01/12 01:01:34;;;;;;;12.15;8.40;;;;;;;5.46;81.22;101349.22;4993239;28;20499;-89
2024/01/12 01:04:02;;;;;;;15.00;9.43;;;;;;;5.72;81.19;101396.34;5009192;28;20444;-89
2024/01/12 01:06:29;;;;;;;12.40;8.65;;;;;;;5.40;81.01;101328.00;5008397;28;20073;-89
2024/01/12 01:08:55;;;;;;;13.27;8.68;;;;;;;5.43;81.11;101338.59;5006254;28;20029;-89
2024/01/12 01:11:36;;;;;;;14.18;8.70;;;;;;;5.10;81.38;101280.59;4989376;28;20069;-91
2024/01/12 01:14:04;;;;;;;12.63;7.97;;;;;;;5.55;81.35;101354.28;5003536;28;20030;-89
2024/01/12 01:16:31;;;;;;;13.27;8.75;;;;;;;5.47;81.22;101345.84;4981161;28;20030;-88
2024/01/12 01:18:58;;;;;;;14.00;8.25;;;;;;;5.75;81.25;101400.88;5001538;28;20038;-90
2024/01/12 01:21:29;;;;;;;13.27;8.73;;;;;;;5.47;81.20;101345.84;5006980;28;20034;-89
2024/01/12 01:23:56;;;;;;;11.65;8.18;;;;;;;5.48;80.94;101350.25;5001906;28;20187;-87
2024/01/12 01:26:22;;;;;;;;;;;;;;;5.79;80.95;101404.63;5001224;28;20030;-88
2024/01/12 01:28:49;;;;;;;13.98;8.43;;;;;;;5.38;80.88;101335.63;5020062;28;19921;-88
2024/01/12 01:31:14;;;;;;;12.48;8.50;;;;;;;5.58;81.10;101383.91;4992135;28;20045;-88
2024/01/12 01:33:40;;;;;;;14.30;9.10;;;;;;;5.25;81.04;101312.09;4990411;28;20030;-88
2024/01/12 01:36:06;;;;;;;14.05;8.55;;;;;;;5.01;81.05;101277.25;5009262;28;20567;-89
2024/01/12 01:38:32;;;;;;;12.05;8.15;;;;;;;5.36;80.92;101328.53;4997674;28;20731;-89
2024/01/12 01:41:02;;;;;;;11.70;8.32;;;;;;;5.30;81.21;101321.13;5008715;28;20096;-89
2024/01/12 01:43:27;;;;;;;13.23;8.32;;;;;;;5.05;80.78;101268.97;5007326;28;20132;-90
2024/01/12 01:45:57;;;;;;;13.95;8.77;;;;;;;5.35;80.89;101317.22;5012075;28;20688;-90
2024/01/12 01:48:28;;;;;;;14.10;8.45;;;;;;;5.57;80.96;101355.31;4993925;28;20094;-90
2024/01/12 01:50:54;;;;;;;12.45;8.43;;;;;;;5.40;80.90;101320.22;4994751;28;20145;-89
2024/01/12 01:53:21;;;;;;;12.18;7.97;;;;;;;5.24;80.98;101300.81;4990530;28;20121;-88
2024/01/12 01:55:47;;;;;;;13.25;8.73;;;;;;;5.61;80.90;101367.72;4970310;28;20063;-89
2024/01/12 01:58:13;;;;;;;11.35;7.55;;;;;;;5.28;80.77;101309.75;4987229;28;20482;-88
2024/01/12 02:00:40;;;;;;;12.95;7.63;;;;;;;5.27;80.85;101303.66;4989220;28;20565;-90
2024/01/12 02:03:09;;;;;;;10.63;7.47;;;;;;;5.53;80.99;101343.78;4991590;28;20057;-89
2024/01/12 02:05:35;;;;;;;11.45;8.05;;;;;;;5.59;80.71;101353.72;4961491;28;20057;-90
2024/01/12 02:08:05;;;;;;;10.82;7.63;;;;;;;5.60;80.92;101355.56;4983594;28;20161;-89
2024/01/12 02:10:37;;;;;;;11.48;7.82;;;;;;;5.26;80.88;101293.16;4982182;28;20125;-89
2024/01/12 02:13:03;;;;;;;13.23;8.13;;;;;;;5.16;80.88;101288.91;4975463;28;20034;-89
2024/01/12 02:15:32;;;;;;;10.95;7.38;;;;;;;5.49;80.79;101340.00;4988731;28;20034;-90
2024/01/12 02:17:58;;;;;;;11.43;7.28;;;;;;;5.64;80.86;101380.94;4964651;28;20042;-90
2024/01/12 02:20:28;;;;;;;13.18;8.13;;;;;;;5.35;80.63;101326.69;4980700;28;20034;-90
2024/01/12 02:22:54;;;;;;;11.70;7.80;;;;;;;5.63;80.64;101372.28;4988330;28;20492;-89
2024/01/12 02:25:21;;;;;;;11.02;7.55;;;;;;;5.46;80.65;101339.78;4990378;28;20218;-89
2024/01/12 02:27:49;;;;;;;11.52;7.82;;;;;;;5.24;80.64;101294.72;5008535;28;20108;-90
2024/01/12 02:30:17;;;;;;;12.48;8.02;;;;;;;5.39;80.83;101318.41;4977739;28;20036;-90
2024/01/12 02:32:44;;;;;;;12.25;7.55;;;;;;;5.60;80.35;101359.03;4975145;28;20026;-90
2024/01/12 02:35:12;;;;;;;12.55;7.97;;;;;;;5.49;80.77;101341.72;4975802;28;20026;-90
2024/01/12 02:37:37;;;;;;;11.50;7.72;;;;;;;5.35;80.70;101325.00;4977104;28;20639;-89
2024/01/12 02:40:06;;;;;;;11.02;7.93;;;;;;;5.62;80.32;101367.84;4992541;28;20106;-90
2024/01/12 02:42:36;;;;;;;10.25;7.05;;;;;;;5.20;80.51;101293.56;4992764;28;20038;-88
2024/01/12 02:45:02;;;;;;;10.90;7.40;;;;;;;5.28;80.38;101300.28;4978916;28;20114;-87
2024/01/12 02:47:33;;;;;;;10.57;7.22;;;;;;;5.34;80.80;101318.03;4986947;28;20054;-89
2024/01/12 02:50:08;;;;;;;11.27;7.50;;;;;;;5.47;80.54;101349.34;4974020;28;20038;-90
2024/01/12 02:52:42;;;;;;;11.70;7.30;;;;;;;5.23;80.89;101314.53;4976745;28;20039;-89
2024/01/12 02:55:08;;;;;;;11.02;7.38;;;;;;;5.56;80.51;101382.88;4970322;28;20045;-89
2024/01/12 02:57:34;;;;;;;10.68;7.25;;;;;;;5.00;80.39;101278.94;4974900;28;20030;-89
2024/01/12 03:00:03;;;;;;;10.00;6.88;;;;;;;5.55;80.50;101377.59;4976762;28;20030;-89
2024/01/12 03:02:32;;;;;;;11.10;7.30;;;;;;;5.38;80.52;101358.03;4990001;28;20060;-89
2024/01/12 03:05:00;;;;;;;11.75;7.40;;;;;;;5.55;80.32;101391.44;4983485;28;20597;-88
2024/01/12 03:07:26;;;;;;;11.48;7.43;;;;;;;5.42;80.38;101385.97;4990197;28;20038;-89
2024/01/12 03:09:53;;;;;;;10.82;7.55;;;;;;;5.35;80.49;101365.53;4964445;28;20034;-90
2024/01/12 03:12:36;;;;;;;11.65;7.22;;;;;;;5.41;80.41;101379.91;4986274;28;20438;-90
2024/01/12 03:15:17;;;;;;;10.40;6.97;;;;;;;5.39;80.43;101384.06;4973425;28;20145;-89
2024/01/12 03:17:46;;;;;;;10.52;7.15;;;;;;;5.37;80.18;101384.69;4962607;28;20034;-92
2024/01/12 03:20:19;;;;;;;9.60;6.53;;;;;;;5.10;80.66;101337.56;4991027;28;20504;-88
2024/01/12 03:22:47;;;;;;;11.07;6.88;;;;;;;5.25;80.27;101364.78;4970262;28;20027;-89
2024/01/12 03:25:14;;;;;;;11.32;6.78;;;;;;;5.06;80.16;101335.53;4969039;28;20519;-90
2024/01/12 03:27:42;;;;;;;10.07;7.13;;;;;;;5.14;80.39;101356.84;4976611;28;20485;-91
2024/01/12 03:30:10;;;;;;;10.40;7.13;;;;;;;5.07;80.23;101343.38;4957779;28;20081;-91
2024/01/12 03:32:39;;;;;;;11.77;7.10;;;;;;;5.51;80.45;101418.75;4970190;28;20121;-90
2024/01/12 03:35:09;;;;;;;11.85;7.07;;;;;;;5.51;80.43;101423.03;4985183;28;20027;-89
2024/01/12 03:37:50;;;;;;;10.57;7.35;;;;;;;5.25;80.57;101387.19;4984139;28;20105;-90
2024/01/12 03:40:17;;;;;;;10.40;6.45;;;;;;;5.27;80.57;101388.19;4961746;28;20042;-89
2024/01/12 03:42:44;;;;;;;9.55;6.45;;;;;;;4.77;80.22;101305.47;4985965;28;20041;-92
2024/01/12 03:45:14;;;;;;;9.30;6.35;;;;;;;5.47;80.51;101418.38;4973176;28;20030;-92
2024/01/12 03:47:40;;;;;;;9.13;6.40;;;;;;;4.72;80.10;101278.31;5001981;28;20026;-90
2024/01/12 03:50:16;;;;;;;10.95;6.82;;;;;;;5.26;79.99;101373.44;4975937;28;20050;-91
2024/01/12 03:52:42;;;;;;;9.95;6.40;;;;;;;5.45;79.91;101394.94;4985380;28;20041;-90
2024/01/12 03:55:08;;;;;;;9.20;6.38;;;;;;;4.95;80.13;101316.47;4991061;28;20069;-89
2024/01/12 03:57:37;;;;;;;9.57;6.53;;;;;;;5.47;80.34;101400.25;5002594;28;20136;-89
2024/01/12 04:00:03;;;;;;;9.45;6.10;;;;;;;5.07;79.68;101329.56;5009276;28;20384;-88
2024/01/12 04:02:30;;;;;;;9.75;6.57;;;;;;;5.22;79.96;101358.41;5012899;28;20095;-88
2024/01/12 04:04:56;;;;;;;9.15;6.38;;;;;;;5.19;79.87;101361.66;4999436;28;20032;-89
2024/01/12 04:07:23;;;;;;;9.07;6.30;;;;;;;4.80;79.88;101295.34;5025763;28;20029;-88
2024/01/12 04:09:48;;;;;;;9.10;5.97;;;;;;;4.93;79.92;101322.28;5026642;28;20120;-89
2024/01/12 04:12:15;;;;;;;10.80;6.60;;;;;;;4.96;80.12;101331.22;5034719;28;20025;-89
2024/01/12 04:14:45;;;;;;;9.07;5.93;;;;;;;5.32;79.95;101397.28;5003228;28;20040;-90
2024/01/12 04:17:11;;;;;;;9.73;6.22;;;;;;;5.12;80.04;101369.66;5028695;28;20095;-89
2024/01/12 04:19:38;;;;;;;8.25;5.80;;;;;;;4.98;79.77;101339.13;5018782;28;20017;-89
2024/01/12 04:22:04;;;;;;;8.90;6.30;;;;;;;4.84;79.94;101322.41;4998966;28;20109;-89
2024/01/12 04:24:31;;;;;;;8.57;6.35;;;;;;;4.98;80.04;101349.47;5008159;28;20029;-89
2024/01/12 04:26:58;;;;;;;9.40;6.07;;;;;;;5.18;79.85;101390.91;5009578;28;20025;-90
2024/01/12 04:29:23;;;;;;;9.27;6.40;;;;;;;5.12;79.91;101384.28;5006934;28;20103;-88
2024/01/12 04:31:53;;;;;;;9.88;6.35;;;;;;;5.11;80.08;101375.63;5002725;28;20049;-89
2024/01/12 04:34:25;;;;;;;8.30;6.10;;;;;;;5.27;79.99;101399.47;5011095;28;20030;-90
2024/01/12 04:36:58;;;;;;;10.45;6.20;;;;;;;5.23;79.98;101396.50;4992539;28;20025;-91
2024/01/12 04:39:23;;;;;;;9.93;6.70;;;;;;;5.37;79.85;101427.03;4998119;28;20033;-90
2024/01/12 04:41:49;;;;;;;9.98;6.22;;;;;;;4.72;80.27;101299.00;4997596;28;20037;-90
2024/01/12 04:44:19;;;;;;;11.35;6.28;;;;;;;5.34;79.90;101413.84;4995071;28;20510;-90
2024/01/12 04:46:50;;;;;;;9.13;6.20;;;;;;;5.04;79.98;101362.94;5013981;28;20124;-90
2024/01/12 04:49:16;;;;;;;9.80;6.22;;;;;;;5.34;80.30;101420.72;4996516;28;20033;-90
2024/01/12 04:51:43;;;;;;;10.32;6.65;;;;;;;5.07;79.92;101382.22;5005963;28;20054;-89
2024/01/12 04:54:08;;;;;;;9.30;6.15;;;;;;;4.89;80.13;101357.38;4994291;28;20780;-89
2024/01/12 04:56:52;;;;;;;10.27;6.13;;;;;;;5.32;80.02;101443.88;4996931;28;20108;-89
2024/01/12 04:59:21;;;;;;;8.88;5.80;;;;;;;4.60;80.14;101313.47;5008281;28;20038;-87
2024/01/12 05:01:56;;;;;;;9.48;5.72;;;;;;;5.18;79.94;101419.38;5008639;28;20600;-90
2024/01/12 05:04:21;;;;;;;8.38;5.95;;;;;;;5.07;79.92;101404.63;4995728;28;20076;-90
2024/01/12 05:06:53;;;;;;;9.43;6.07;;;;;;;5.14;79.84;101432.84;4992068;28;20480;-92
2024/01/12 05:09:19;;;;;;;9.88;6.03;;;;;;;4.80;79.92;101374.66;5012604;28;20045;-89
2024/01/12 05:11:50;;;;;;;8.25;5.93;;;;;;;5.00;79.98;101430.75;4994564;28;20045;-89
2024/01/12 05:14:20;;;;;;;8.18;5.93;;;;;;;5.27;80.21;101476.22;5009390;28;21054;-91
2024/01/12 05:16:45;;;;;;;8.40;6.05;;;;;;;5.17;80.22;101448.66;4995106;28;20398;-89
2024/01/12 05:19:11;;;;;;;9.30;6.03;;;;;;;5.28;79.91;101472.88;5007040;28;20026;-90
2024/01/12 05:21:40;;;;;;;9.65;6.53;;;;;;;5.21;80.18;101480.91;5006968;28;20572;-91
2024/01/12 05:24:16;;;;;;;8.93;5.85;;;;;;;5.00;79.87;101461.81;5010894;28;20033;-90
2024/01/12 05:26:47;;;;;;;9.88;6.00;;;;;;;4.94;80.22;101436.31;5022866;28;20052;-90
2024/01/12 05:29:14;;;;;;;9.02;5.63;;;;;;;5.25;80.18;101495.94;5005069;28;20034;-89
2024/01/12 05:31:44;;;;;;;8.38;6.13;;;;;;;4.91;80.27;101451.56;5017378;28;20498;-90
2024/01/12 05:34:11;;;;;;;9.30;6.07;;;;;;;5.03;79.96;101470.75;5026327;28;20030;-91
2024/01/12 05:36:38;;;;;;;9.13;6.13;;;;;;;5.16;80.17;101503.78;5029693;28;20049;-88
2024/01/12 05:39:05;;;;;;;10.50;6.20;;;;;;;5.14;79.85;101501.84;4999754;28;20029;-89
2024/01/12 05:41:40;;;;;;;9.82;6.57;;;;;;;4.88;79.93;101462.53;5016182;28;20116;-88
2024/01/12 05:44:07;;;;;;;7.80;5.53;;;;;;;4.87;79.87;101465.03;4992483;28;20045;-88
2024/01/12 05:46:41;;;;;;;8.88;6.10;;;;;;;4.74;79.76;101459.50;5010065;28;20068;-90
2024/01/12 05:49:14;;;;;;;9.05;5.93;;;;;;;5.06;80.06;101516.72;5013787;28;20041;-89
2024/01/12 05:51:40;;;;;;;9.27;5.95;;;;;;;5.19;80.10;101548.09;4997033;28;20096;-90
2024/01/12 05:54:06;;;;;;;8.88;6.28;;;;;;;4.93;79.74;101504.34;5002584;28;20479;-90
2024/01/12 05:56:32;;;;;;;8.18;5.72;;;;;;;4.45;79.65;101425.13;4995618;28;20510;-90
2024/01/12 05:59:00;;;;;;;8.18;5.60;;;;;;;4.91;79.65;101511.09;5000416;28;20030;-90
2024/01/12 06:01:28;;;;;;;8.95;5.88;;;;;;;4.62;79.70;101461.94;5013693;28;20037;-90
2024/01/12 06:04:02;;;;;;;9.45;6.05;;;;;;;4.96;80.02;101533.09;5022626;28;20080;-90
2024/01/12 06:06:30;;;;;;;9.23;6.10;;;;;;;5.04;79.82;101558.00;5009056;28;20041;-89
2024/01/12 06:08:57;;;;;;;9.32;5.50;;;;;;;5.05;79.81;101561.47;4998027;28;20036;-88
2024/01/12 06:11:22;;;;;;;7.95;5.68;;;;;;;5.05;79.96;101571.84;5009465;28;20029;-86
2024/01/12 06:13:48;;;;;;;9.45;6.13;;;;;;;5.10;79.78;101591.25;5010525;28;20525;-90
2024/01/12 06:16:16;;;;;;;9.55;6.32;;;;;;;5.17;79.69;101611.75;4997034;28;20419;-90
2024/01/12 06:19:05;;;;;;;9.85;6.32;;;;;;;5.16;79.62;101617.69;4989140;28;20164;-90
2024/01/12 06:21:36;;;;;;;9.52;5.90;;;;;;;5.03;79.45;101588.91;4996640;28;20037;-90
2024/01/12 06:24:02;;;;;;;9.70;6.25;;;;;;;4.90;79.75;101585.22;4999675;28;20064;-87
2024/01/12 06:26:30;;;;;;;9.10;6.07;;;;;;;5.00;79.50;101599.00;4994159;28;20030;-89
2024/01/12 06:28:57;;;;;;;9.90;6.28;;;;;;;4.82;79.68;101568.09;5007699;28;20025;-87
2024/01/12 06:31:23;;;;;;;8.65;5.90;;;;;;;5.08;79.92;101621.31;5010347;28;20034;-87
2024/01/12 06:33:49;;;;;;;8.98;5.88;;;;;;;5.03;79.48;101612.22;5011616;28;20095;-88
2024/01/12 06:36:16;;;;;;;9.32;6.10;;;;;;;4.84;79.62;101576.00;5009883;28;20026;-87
2024/01/12 06:38:48;;;;;;;9.85;6.18;;;;;;;5.00;79.62;101612.84;5012212;28;20025;-88
2024/01/12 06:41:14;;;;;;;9.30;6.05;;;;;;;5.15;79.53;101644.38;4991681;28;20107;-89
2024/01/12 06:43:40;;;;;;;10.38;5.93;;;;;;;5.09;79.55;101642.13;4988541;28;20034;-90
2024/01/12 06:46:06;;;;;;;10.68;6.47;;;;;;;4.84;79.72;101607.94;5002351;28;20033;-88
2024/01/12 06:48:32;;;;;;;10.23;6.00;;;;;;;4.99;79.75;101638.59;5011766;28;20041;-88
2024/01/12 06:50:58;;;;;;;7.88;5.50;;;;;;;5.08;79.21;101650.69;5006612;28;20490;-87
2024/01/12 06:53:23;;;;;;;7.93;5.43;;;;;;;5.02;79.66;101642.38;5022065;28;20042;-86
2024/01/12 06:55:49;;;;;;;9.38;6.28;;;;;;;5.02;79.71;101642.38;5003192;28;20034;-88
2024/01/12 06:58:16;;;;;;;10.25;6.28;;;;;;;5.01;79.62;101647.41;5010307;28;20038;-87
2024/01/12 07:00:42;;;;;;;9.07;6.13;;;;;;;4.94;79.33;101639.88;5008246;28;20468;-89
2024/01/12 07:03:08;;;;;;;10.45;6.35;;;;;;;5.05;79.19;101667.63;5009207;28;20024;-90
2024/01/12 07:05:33;;;;;;;10.35;6.15;;;;;;;5.10;79.47;101677.63;5007569;28;20038;-87
2024/01/12 07:07:59;;;;;;;9.98;5.90;;;;;;;4.91;79.10;101650.84;5006016;28;20065;-87
2024/01/12 07:10:25;;;;;;;8.95;6.00;;;;;;;4.89;79.39;101644.63;4985725;28;20165;-87
2024/01/12 07:12:52;;;;;;;9.65;6.38;;;;;;;5.10;79.21;101684.47;4991134;28;20423;-87
2024/01/12 07:15:20;;;;;;;10.15;5.97;;;;;;;4.74;79.20;101618.28;5002174;28;20037;-88
2024/01/12 07:17:51;;;;;;;9.52;5.60;;;;;;;4.96;79.59;101662.53;5005364;28;20109;-91
2024/01/12 07:20:19;;;;;;;9.30;5.85;;;;;;;4.93;79.23;101662.22;5002078;28;20495;-91
2024/01/12 07:22:48;;;;;;;9.45;6.00;;;;;;;5.07;79.35;101687.69;4992480;28;20050;-92
2024/01/12 07:25:25;;;;;;;12.50;6.70;;;;;;;4.92;79.70;101654.34;5009803;28;20480;-92
2024/01/12 07:27:57;;;;;;;9.88;6.35;;;;;;;5.03;79.31;101672.66;4997160;28;20026;-93
2024/01/12 07:30:24;;;;;;;10.55;6.38;;;;;;;4.79;79.52;101632.53;5009039;28;20029;-90
2024/01/12 07:33:05;;;;;;;8.73;6.10;;;;;;;4.90;79.43;101655.09;5010783;28;20058;-92
2024/01/12 07:35:40;;;;;;;9.90;6.22;;;;;;;4.93;79.49;101661.31;4987870;28;20479;-94
2024/01/12 07:38:21;;;;;;;9.55;6.22;;;;;;;4.75;79.36;101638.19;4995580;28;20026;-93
2024/01/12 07:40:56;;;;;;;10.88;6.43;;;;;;;4.84;79.77;101670.06;5008789;28;20436;-91
2024/01/12 07:43:24;;;;;;;9.05;6.00;;;;;;;5.02;79.35;101693.25;5010705;28;20124;-92
2024/01/12 07:45:53;;;;;;;9.82;6.07;;;;;;;5.02;79.39;101701.91;4993159;28;20037;-93
2024/01/12 07:48:25;;;;;;;9.88;5.95;;;;;;;4.92;79.59;101683.72;5024244;28;20574;-94
2024/01/12 07:50:51;;;;;;;10.25;6.40;;;;;;;5.05;79.71;101709.94;4984882;28;20055;-93
2024/01/12 07:53:18;;;;;;;9.95;6.10;;;;;;;4.92;79.23;101688.91;4975422;28;20196;-92
2024/01/12 07:56:34;;;;;;;9.57;6.43;;;;;;;5.06;79.68;101711.78;4982579;28;20101;-92
2024/01/12 07:59:07;;;;;;;12.02;6.47;;;;;;;4.90;79.49;101686.16;4991506;28;20474;-92
2024/01/12 08:01:53;;;;;;;11.32;6.57;;;;;;;4.89;79.50;101680.88;4984963;28;20746;-92
2024/01/12 08:04:20;;;;;;;10.25;6.03;;;;;;;4.85;79.33;101682.25;4991049;28;20476;-91
2024/01/12 08:06:51;;;;;;;10.10;6.22;;;;;;;4.60;79.72;101652.31;4970447;28;20038;-91
2024/01/12 08:09:27;;;;;;;8.77;5.95;;;;;;;4.87;79.64;101700.50;4987019;28;20493;-94
2024/01/12 08:11:59;;;;;;;8.90;6.20;;;;;;;4.96;79.56;101726.31;4994803;28;20233;-92
2024/01/12 08:14:37;;;;;;;10.88;6.50;;;;;;;4.97;79.43;101723.84;4968727;28;20116;-94
2024/01/12 08:17:10;;;;;;;10.95;6.78;;;;;;;4.73;79.58;101677.63;4986876;28;20033;-94
2024/01/12 08:19:48;;;;;;;9.68;6.57;;;;;;;4.87;79.57;101706.59;4972601;28;20061;-94
2024/01/12 08:22:18;;;;;;;10.13;6.18;;;;;;;4.97;79.60;101726.44;4978829;28;20058;-94
2024/01/12 08:24:44;;;;;;;11.55;6.80;;;;;;;4.65;79.46;101672.63;4978365;28;20057;-91
2024/01/12 08:27:20;;;;;;;10.77;6.25;;;;;;;4.63;79.47;101670.69;4990111;28;20105;-89
2024/01/12 08:29:47;;;;;;;10.50;6.03;;;;;;;4.87;79.76;101718.63;4985142;28;20125;-90
2024/01/12 08:32:14;;;;;;;9.10;6.15;;;;;;;4.88;79.46;101726.50;4972070;28;20677;-88
2024/01/12 08:34:39;;;;;;;9.73;6.47;;;;;;;4.71;79.53;101702.44;4968755;28;20042;-90
2024/01/12 08:37:09;;;;;;;10.20;6.35;;;;;;;4.66;79.52;101689.09;4989591;28;20117;-89
2024/01/12 08:39:34;;;;;;;10.93;6.60;;;;;;;4.85;79.90;101721.06;4986927;28;20038;-89
2024/01/12 08:42:02;;;;;;;11.02;6.38;;;;;;;4.84;79.67;101727.00;4973949;28;20408;-88
2024/01/12 08:44:56;;;;;;;9.75;6.40;;;;;;;4.98;79.68;101750.69;4986124;28;20042;-91
2024/01/12 08:47:22;;;;;;;12.07;6.78;;;;;;;4.80;79.63;101711.06;4985672;28;20034;-92
2024/01/12 08:50:02;;;;;;;10.35;6.72;;;;;;;4.93;79.83;101737.28;4988694;28;20042;-92
2024/01/12 08:52:32;;;;;;;9.07;6.13;;;;;;;4.83;79.51;101724.28;5006067;28;20133;-90
2024/01/12 08:54:59;;;;;;;10.85;6.65;;;;;;;4.74;79.57;101702.72;5013642;28;20034;-89
2024/01/12 08:57:25;;;;;;;10.77;6.40;;;;;;;5.00;79.65;101759.50;5012835;28;20029;-91
2024/01/12 08:59:52;;;;;;;10.82;6.25;;;;;;;4.77;79.82;101715.97;5008817;28;20680;-87
2024/01/12 09:02:25;;;;;;;10.57;6.80;;;;;;;4.84;79.35;101731.28;5015075;28;20570;-93
2024/01/12 09:05:05;;;;;;;9.27;6.03;;;;;;;4.81;79.56;101728.41;5010818;28;20030;-90
2024/01/12 09:07:33;;;;;;;11.68;6.38;;;;;;;4.84;79.91;101733.84;5021069;28;20030;-93
2024/01/12 09:10:02;;;;;;;10.50;6.55;;;;;;;4.85;79.79;101730.53;4995168;28;20121;-92
2024/01/12 09:12:40;;;;;;;10.52;6.43;;;;;;;4.83;79.75;101724.28;5014933;28;20038;-92
2024/01/12 09:15:25;;;;;;;9.57;6.38;;;;;;;4.97;79.78;101752.31;5005362;28;20532;-90
2024/01/12 09:17:52;;;;;;;10.10;6.55;;;;;;;4.66;79.70;101705.53;5001605;28;20046;-90
2024/01/12 09:20:21;;;;;;;10.50;6.50;;;;;;;4.84;79.86;101731.28;5000663;28;20034;-90
2024/01/12 09:22:46;;;;;;;8.90;6.05;;;;;;;4.99;79.88;101757.66;4988902;28;20021;-87
2024/01/12 09:25:13;;;;;;;10.82;6.78;;;;;;;4.79;79.44;101722.19;4988543;28;20041;-87
2024/01/12 09:27:39;;;;;;;11.00;6.38;;;;;;;4.97;79.35;101760.09;5004664;28;20049;-86
2024/01/12 09:30:46;;;;;;;9.45;6.20;;;;;;;4.96;79.54;101755.69;5004495;28;20032;-93
2024/01/12 09:33:33;;;;;;;11.10;6.68;;;;;;;4.96;79.81;101753.13;5009933;28;20042;-93
2024/01/12 09:36:03;;;;;;;12.20;6.88;;;;;;;4.95;79.76;101750.38;5009078;28;20041;-90
2024/01/12 09:38:29;;;;;;;10.95;6.80;;;;;;;4.71;79.61;101710.22;4997059;28;20519;-89
2024/01/12 09:41:11;;;;;;;9.95;6.68;;;;;;;4.95;79.41;101752.97;5015771;28;20033;-90
2024/01/12 09:43:39;;;;;;;10.30;6.43;;;;;;;4.86;79.45;101741.00;5005730;28;20487;-91
2024/01/12 09:46:08;;;;;;;11.05;6.55;;;;;;;4.99;79.85;101762.84;5009535;28;20567;-87
2024/01/12 09:48:44;;;;;;;11.48;7.00;;;;;;;4.80;79.57;101734.34;5012053;28;20586;-92
2024/01/12 09:51:11;;;;;;;10.63;6.47;;;;;;;4.77;79.68;101724.63;4998020;28;20041;-91
2024/01/12 09:53:46;;;;;;;10.35;6.75;;;;;;;4.76;79.93;101724.47;4994619;28;20073;-91
2024/01/12 09:56:12;;;;;;;10.32;6.53;;;;;;;4.81;79.77;101733.59;5006997;28;20041;-90
2024/01/12 09:58:39;;;;;;;11.95;6.97;;;;;;;4.73;79.99;101735.47;5010197;28;20025;-91
2024/01/12 10:01:05;;;;;;;10.98;6.80;;;;;;;4.61;79.70;101706.75;4994388;28;20018;-92
2024/01/12 10:03:33;;;;;;;11.45;6.57;;;;;;;4.67;79.58;101709.91;5022560;28;20037;-91
2024/01/12 10:06:04;;;;;;;11.32;6.93;;;;;;;4.96;79.76;101760.88;5008836;28;20026;-92
2024/01/12 10:08:40;;;;;;;9.45;6.30;;;;;;;4.98;79.78;101763.63;4984111;28;20033;-90
2024/01/12 10:11:09;;;;;;;10.27;6.70;;;;;;;4.80;79.75;101735.25;5006291;28;20499;-91
2024/01/12 10:13:35;;;;;;;11.88;6.75;;;;;;;4.69;79.72;101729.06;5025306;28;20064;-92
2024/01/12 10:16:05;;;;;;;11.63;6.82;;;;;;;4.95;79.81;101773.66;5008946;28;20058;-92
2024/01/12 10:18:31;;;;;;;11.32;6.93;;;;;;;4.62;79.53;101708.59;4990618;28;20069;-94
2024/01/12 10:21:18;;;;;;;11.50;6.60;;;;;;;4.95;79.69;101768.50;4989255;28;20065;-94
2024/01/12 10:23:48;;;;;;;;;;;;;;;4.97;79.81;101766.97;5005016;28;20034;-92
2024/01/12 10:26:23;;;;;;;11.00;6.38;;;;;;;4.81;79.67;101738.75;5009286;28;20069;-92
2024/01/12 10:29:03;;;;;;;10.05;6.25;;;;;;;4.80;79.70;101753.34;4998934;28;20026;-90
2024/01/12 10:31:49;;;;;;;10.10;6.20;;;;;;;4.79;79.93;101753.25;4993140;28;20060;-94
2024/01/12 10:34:33;;;;;;;10.65;6.85;;;;;;;4.61;79.97;101718.78;4997039;28;20025;-90
2024/01/12 10:37:02;;;;;;;11.13;6.68;;;;;;;4.76;79.59;101746.06;4993511;28;20076;-89
2024/01/12 10:39:33;;;;;;;11.18;6.75;;;;;;;4.61;79.55;101713.63;5008075;28;20030;-91
2024/01/12 10:42:05;;;;;;;11.43;6.88;;;;;;;4.73;79.63;101739.72;4990689;28;20049;-93
2024/01/12 10:44:36;;;;;;;13.30;7.60;;;;;;;4.54;79.75;101719.91;5006694;28;20050;-93
2024/01/12 10:47:07;;;;;;;10.63;6.82;;;;;;;4.89;80.04;101774.94;5004606;28;20030;-91
2024/01/12 10:49:53;;;;;;;11.63;6.95;;;;;;;4.62;79.90;101738.72;5008479;28;20049;-91
2024/01/12 10:52:32;;;;;;;12.13;6.40;;;;;;;4.88;79.89;101780.84;5034860;28;20045;-93
2024/01/12 10:55:23;;;;;;;9.38;6.30;;;;;;;4.96;79.46;101789.34;5009169;28;20412;-92
2024/01/12 10:58:00;;;;;;;10.73;6.97;;;;;;;4.99;79.50;101786.13;5026246;28;20077;-92
2024/01/12 11:00:26;;;;;;;;;;;;;;;4.98;79.78;101795.56;5009727;28;20145;-89
2024/01/12 11:02:54;;;;;;;10.85;6.85;;;;;;;4.81;79.56;101768.13;5018282;28;19964;-90
2024/01/12 11:05:21;;;;;;;12.38;6.70;;;;;;;4.89;79.48;101782.69;4998251;28;20041;-91
2024/01/12 11:07:49;;;;;;;10.93;6.63;;;;;;;4.98;79.64;101802.44;5004754;28;20040;-92
2024/01/12 11:10:40;;;;;;;10.70;6.38;;;;;;;4.95;79.82;101797.88;5013983;28;20057;-94
2024/01/12 11:13:13;;;;;;;10.80;6.88;;;;;;;4.37;79.33;101696.72;5007165;28;20037;-91
2024/01/12 11:15:43;;;;;;;12.07;7.15;;;;;;;4.92;79.72;101800.19;5009752;28;20496;-93
2024/01/12 11:18:09;;;;;;;10.32;6.28;;;;;;;4.47;79.70;101714.94;4990426;28;20546;-90
2024/01/12 11:20:35;;;;;;;12.25;7.35;;;;;;;4.83;79.74;101787.31;5010561;28;20038;-91
2024/01/12 11:23:03;;;;;;;10.30;6.18;;;;;;;4.43;79.35;101724.06;5008876;28;20073;-88
2024/01/12 11:25:32;;;;;;;13.90;7.72;;;;;;;4.83;79.59;101781.22;4993501;28;20033;-89
2024/01/12 11:28:08;;;;;;;9.55;6.20;;;;;;;4.70;79.62;101771.41;5005315;28;20088;-90
2024/01/12 11:30:50;;;;;;;10.80;6.88;;;;;;;4.88;79.27;101822.28;5004851;28;20034;-91
2024/01/12 11:33:31;;;;;;;11.88;6.70;;;;;;;4.96;79.68;101838.53;4990893;28;20467;-92
2024/01/12 11:36:27;;;;;;;12.32;6.82;;;;;;;4.94;78.97;101834.88;4996392;28;20026;-90
2024/01/12 11:38:57;;;;;;;12.88;7.53;;;;;;;4.81;79.32;101812.13;5007598;28;20072;-90
2024/01/12 11:41:28;;;;;;;13.55;7.20;;;;;;;4.45;79.58;101744.91;5009402;28;20038;-89
2024/01/12 11:43:54;;;;;;;13.65;7.68;;;;;;;4.83;79.49;101823.53;4988124;28;20494;-89